TAF and METAR

METAR for Bartolomeu Lysandro Airport

SBCP 192000Z 16014KT CAVOK 26/20 Q1012
Report created 19. okt 22:00
wind 14 knots from SSE (160°) Clear sky Temperature 26° with dewpoint at 20° (Humidity 69.60%) Pressure 1012 hPa

TAF for Bartolomeu Lysandro Airport

TAF SBCP 191500Z 1918/2006 16010KT 9999 FEW020 TX30/1918Z TN25/1921Z RMK PHD
Report created 19. okt 17:00

between 19. okt 20:00 - 20. okt 08:00

wind 10 knots from SSE (160°) visibility > 10km some clouds (~25% cover) at 2000 feet Max temperature 30° expected today at around 20 o'clock Min temperature 25° expected today at around 23 o'clock
Bartolomeu Lysandro Airport in Brazil at 11m

Latest 5 airports